createdAt,value
2024-03-26T00:00:27.836Z,99614608.0000
2024-03-26T00:01:29.052Z,99614608.0000
2024-03-26T00:02:30.338Z,99614608.0000
2024-03-26T00:03:31.531Z,99614608.0000
2024-03-26T00:04:32.893Z,99614608.0000
2024-03-26T00:05:34.123Z,99614608.0000
2024-03-26T00:06:35.468Z,99614608.0000
2024-03-26T00:07:36.717Z,99614608.0000
2024-03-26T00:08:37.947Z,99614608.0000
2024-03-26T00:09:39.150Z,99614608.0000
2024-03-26T00:10:40.380Z,99614608.0000
2024-03-26T00:11:41.775Z,99614608.0000
2024-03-26T00:12:43.135Z,99614608.0000
2024-03-26T00:13:44.300Z,99614608.0000
2024-03-26T00:14:45.505Z,99614608.0000
2024-03-26T00:15:46.817Z,99614608.0000
2024-03-26T00:16:47.981Z,99614608.0000
2024-03-26T00:17:49.364Z,99614608.0000
2024-03-26T00:18:50.548Z,99614608.0000
2024-03-26T00:19:51.936Z,99614608.0000
2024-03-26T00:20:53.118Z,99614608.0000
2024-03-26T00:21:54.468Z,99614608.0000
2024-03-26T00:22:55.657Z,99614608.0000
2024-03-26T00:23:56.915Z,99614608.0000
2024-03-26T00:24:58.166Z,99614608.0000
2024-03-26T00:25:59.356Z,99614608.0000
2024-03-26T00:27:00.683Z,99614608.0000
2024-03-26T00:28:01.844Z,99614608.0000
2024-03-26T00:29:03.149Z,99614608.0000
2024-03-26T00:30:04.346Z,99614608.0000
2024-03-26T00:31:05.530Z,99614608.0000
2024-03-26T00:32:06.721Z,99614608.0000
2024-03-26T00:33:07.892Z,99614608.0000
2024-03-26T00:34:09.223Z,99614608.0000
2024-03-26T00:35:10.468Z,99614608.0000
2024-03-26T00:36:11.786Z,99614608.0000
2024-03-26T00:37:13.201Z,99614608.0000
2024-03-26T00:38:14.373Z,99614608.0000
2024-03-26T00:39:15.574Z,99614608.0000
2024-03-26T00:40:16.974Z,99614608.0000
2024-03-26T00:41:18.345Z,99614608.0000
2024-03-26T00:42:19.821Z,99614608.0000
2024-03-26T00:43:21.311Z,99614608.0000
2024-03-26T00:44:22.673Z,99614608.0000
2024-03-26T00:45:24.094Z,99614608.0000
2024-03-26T00:46:25.550Z,99614608.0000
2024-03-26T00:47:26.774Z,99614608.0000
2024-03-26T00:48:28.111Z,99614608.0000
2024-03-26T00:49:29.274Z,99614608.0000
2024-03-26T00:50:30.816Z,99614608.0000
2024-03-26T00:51:32.082Z,99614608.0000
2024-03-26T00:52:33.280Z,99614608.0000
2024-03-26T00:53:34.488Z,99614608.0000
2024-03-26T00:54:35.780Z,99614608.0000
2024-03-26T00:55:36.960Z,99614608.0000
2024-03-26T00:56:38.366Z,99614608.0000
2024-03-26T00:57:39.566Z,99614608.0000
2024-03-26T00:58:41.220Z,99614608.0000
2024-03-26T00:59:42.660Z,99614608.0000
2024-03-26T01:00:43.817Z,99614608.0000
2024-03-26T01:01:45.198Z,99614608.0000
2024-03-26T01:02:46.418Z,99614608.0000
2024-03-26T01:03:47.774Z,99614608.0000
2024-03-26T01:04:49.202Z,99614608.0000
2024-03-26T01:05:50.378Z,99614608.0000
2024-03-26T01:06:51.739Z,99614608.0000
2024-03-26T01:07:52.958Z,99614608.0000
2024-03-26T01:08:54.353Z,99614608.0000
2024-03-26T01:09:55.542Z,99614608.0000
2024-03-26T01:10:56.905Z,99614608.0000
2024-03-26T01:11:58.091Z,99614608.0000
2024-03-26T01:12:59.415Z,99614608.0000
2024-03-26T01:14:00.599Z,99614608.0000
2024-03-26T01:15:01.746Z,99614608.0000
2024-03-26T01:16:03.001Z,99614608.0000
2024-03-26T01:17:04.263Z,99614608.0000
2024-03-26T01:18:05.550Z,99614608.0000
2024-03-26T01:19:06.725Z,99614608.0000
2024-03-26T01:20:07.945Z,99614608.0000
2024-03-26T01:21:09.128Z,99614608.0000
2024-03-26T01:22:10.500Z,99614608.0000
2024-03-26T01:23:11.682Z,99614608.0000
2024-03-26T01:24:13.059Z,99614608.0000
2024-03-26T01:25:14.261Z,99614608.0000
2024-03-26T01:26:15.692Z,99614608.0000
2024-03-26T01:27:17.046Z,99614608.0000
2024-03-26T01:28:18.269Z,99614608.0000
2024-03-26T01:29:19.630Z,99614608.0000
2024-03-26T01:30:20.840Z,99614608.0000
2024-03-26T01:31:22.175Z,99614608.0000
2024-03-26T01:32:23.399Z,99614608.0000
2024-03-26T01:33:24.766Z,99614608.0000
2024-03-26T01:34:25.931Z,99614608.0000
2024-03-26T01:35:27.288Z,99614608.0000
2024-03-26T01:36:28.490Z,99614608.0000
2024-03-26T01:37:29.890Z,99614608.0000
2024-03-26T01:38:31.138Z,99614608.0000
2024-03-26T01:39:32.399Z,99614608.0000
2024-03-26T01:40:33.770Z,99614608.0000
2024-03-26T01:41:34.980Z,99614608.0000
2024-03-26T01:42:36.149Z,99614608.0000
2024-03-26T01:43:37.530Z,99614608.0000
2024-03-26T01:44:38.740Z,99614608.0000
2024-03-26T01:45:40.022Z,99614608.0000
2024-03-26T01:46:41.301Z,99614608.0000
2024-03-26T01:47:42.499Z,99614608.0000
2024-03-26T01:48:43.751Z,99614608.0000
2024-03-26T01:49:44.930Z,99614608.0000
2024-03-26T01:50:46.140Z,99614608.0000
2024-03-26T01:51:47.449Z,99614608.0000
2024-03-26T01:52:48.678Z,99614608.0000
2024-03-26T01:53:50.022Z,99614608.0000
2024-03-26T01:54:51.228Z,99614608.0000
2024-03-26T01:55:52.577Z,99614608.0000
2024-03-26T01:56:53.853Z,99614608.0000
2024-03-26T01:57:55.156Z,99614608.0000
2024-03-26T01:58:56.322Z,99614608.0000
2024-03-26T01:59:57.716Z,99614608.0000
2024-03-26T02:00:58.920Z,99614608.0000
2024-03-26T02:02:00.255Z,99614608.0000
2024-03-26T02:03:01.500Z,99614608.0000
2024-03-26T02:04:02.822Z,99614608.0000
2024-03-26T02:05:04.254Z,99614608.0000
2024-03-26T02:06:05.693Z,99614608.0000
2024-03-26T02:07:06.880Z,99614608.0000
2024-03-26T02:08:08.250Z,99614608.0000
2024-03-26T02:09:09.717Z,99614608.0000
2024-03-26T02:10:10.879Z,99614608.0000
2024-03-26T02:11:12.133Z,99614608.0000
2024-03-26T02:12:13.373Z,99614608.0000
2024-03-26T02:13:14.617Z,99614608.0000
2024-03-26T02:14:15.945Z,99614608.0000
2024-03-26T02:15:17.148Z,99614608.0000
2024-03-26T02:16:18.505Z,99614608.0000
2024-03-26T02:17:19.936Z,99614608.0000
2024-03-26T02:18:21.108Z,99614608.0000
2024-03-26T02:19:22.499Z,99614608.0000
2024-03-26T02:20:23.737Z,99614608.0000
2024-03-26T02:21:24.990Z,99614608.0000
2024-03-26T02:22:26.183Z,99614608.0000
2024-03-26T02:23:27.371Z,99614608.0000
2024-03-26T02:24:28.622Z,99614608.0000
2024-03-26T02:25:29.974Z,99614608.0000
2024-03-26T02:26:31.128Z,99614608.0000
2024-03-26T02:27:32.419Z,99614608.0000
2024-03-26T02:28:33.621Z,99614608.0000
2024-03-26T02:29:34.982Z,99614608.0000
2024-03-26T02:30:36.411Z,99614608.0000
2024-03-26T02:31:37.619Z,99614608.0000
2024-03-26T02:32:38.974Z,99614608.0000
2024-03-26T02:33:40.286Z,99614608.0000
2024-03-26T02:34:41.526Z,99614608.0000
2024-03-26T02:35:42.892Z,99614608.0000
2024-03-26T02:36:44.086Z,99614608.0000
2024-03-26T02:37:45.326Z,99614608.0000
2024-03-26T02:38:46.840Z,99614608.0000
2024-03-26T02:39:48.098Z,99614608.0000
2024-03-26T02:40:49.522Z,99614608.0000
2024-03-26T02:41:50.731Z,99614608.0000
2024-03-26T02:42:51.929Z,99614608.0000
2024-03-26T02:43:53.226Z,99614608.0000
2024-03-26T02:44:54.659Z,99614608.0000
2024-03-26T02:45:55.872Z,99614608.0000
2024-03-26T02:46:57.126Z,99614608.0000
2024-03-26T02:47:58.336Z,99614608.0000
2024-03-26T02:48:59.533Z,99614608.0000
2024-03-26T02:50:00.894Z,99614608.0000
2024-03-26T02:51:02.104Z,99614608.0000
2024-03-26T02:52:03.476Z,99614608.0000
2024-03-26T02:53:04.643Z,99614608.0000
2024-03-26T02:54:05.830Z,99614608.0000
2024-03-26T02:55:07.151Z,99614608.0000
2024-03-26T02:56:08.396Z,99614608.0000
2024-03-26T02:57:09.614Z,99614608.0000
2024-03-26T02:58:10.816Z,99614608.0000
2024-03-26T02:59:12.012Z,99614608.0000
2024-03-26T03:00:13.219Z,99614608.0000
2024-03-26T03:01:14.496Z,99614608.0000
2024-03-26T03:02:15.732Z,99614608.0000
2024-03-26T03:03:16.914Z,99614608.0000
2024-03-26T03:04:18.180Z,99614608.0000
2024-03-26T03:05:19.385Z,99614608.0000
2024-03-26T03:06:20.738Z,99614608.0000
2024-03-26T03:07:21.895Z,99614608.0000
2024-03-26T03:08:23.366Z,99614608.0000
2024-03-26T03:09:24.738Z,99614608.0000
2024-03-26T03:10:25.980Z,99614608.0000
2024-03-26T03:11:27.331Z,99614608.0000
2024-03-26T03:12:28.531Z,99614608.0000
2024-03-26T03:13:29.839Z,99614608.0000
2024-03-26T03:14:31.061Z,99614608.0000
2024-03-26T03:15:32.270Z,99614608.0000
2024-03-26T03:16:33.688Z,99614608.0000
2024-03-26T03:17:34.989Z,99614608.0000
2024-03-26T03:18:36.171Z,99614608.0000
2024-03-26T03:19:37.521Z,99614608.0000
2024-03-26T03:20:39.016Z,99614608.0000
2024-03-26T03:21:40.197Z,99614608.0000
2024-03-26T03:22:41.529Z,99614608.0000
2024-03-26T03:23:42.711Z,99614608.0000
2024-03-26T03:24:43.919Z,99614608.0000
2024-03-26T03:25:45.281Z,99614608.0000
2024-03-26T03:26:46.492Z,99614608.0000
2024-03-26T03:27:47.775Z,99614608.0000
2024-03-26T03:28:49.027Z,99614608.0000
2024-03-26T03:29:50.317Z,99614608.0000
2024-03-26T03:30:51.540Z,99614608.0000
2024-03-26T03:31:52.893Z,99614608.0000
2024-03-26T03:32:54.074Z,99614608.0000
2024-03-26T03:33:55.540Z,99614608.0000
2024-03-26T03:34:56.722Z,99614608.0000
2024-03-26T03:35:58.036Z,99614608.0000
2024-03-26T03:36:59.294Z,99614608.0000
2024-03-26T03:38:00.573Z,99614608.0000
2024-03-26T03:39:02.016Z,99614608.0000
2024-03-26T03:40:03.461Z,99614608.0000
2024-03-26T03:41:04.915Z,99614608.0000
2024-03-26T03:42:06.422Z,99614608.0000
2024-03-26T03:43:07.787Z,99614608.0000
2024-03-26T03:44:08.965Z,99614608.0000
2024-03-26T03:45:10.339Z,99614608.0000
2024-03-26T03:46:11.803Z,99614608.0000
2024-03-26T03:47:13.218Z,99614608.0000
2024-03-26T03:48:14.471Z,99614608.0000
2024-03-26T03:49:15.795Z,99614608.0000
2024-03-26T03:50:17.206Z,99614608.0000
2024-03-26T03:51:18.688Z,99614608.0000
2024-03-26T03:52:20.098Z,99614608.0000
2024-03-26T03:53:21.548Z,99614608.0000
2024-03-26T03:54:22.772Z,99614608.0000
2024-03-26T03:55:24.102Z,99614608.0000
2024-03-26T03:56:25.564Z,99614608.0000
2024-03-26T03:57:26.805Z,99614608.0000
2024-03-26T03:58:28.020Z,99614608.0000
2024-03-26T03:59:29.317Z,99614608.0000
2024-03-26T04:00:30.554Z,99614608.0000
2024-03-26T04:01:31.818Z,99614608.0000
2024-03-26T04:02:33.211Z,99614608.0000
2024-03-26T04:03:34.664Z,99614608.0000
2024-03-26T04:04:35.896Z,99614608.0000
2024-03-26T04:05:37.144Z,99614608.0000
2024-03-26T04:06:38.448Z,99614608.0000
2024-03-26T04:07:39.807Z,99614608.0000
2024-03-26T04:08:41.029Z,99614608.0000
2024-03-26T04:09:42.320Z,99614608.0000
2024-03-26T04:10:43.581Z,99614608.0000
2024-03-26T04:11:44.984Z,99614608.0000
2024-03-26T04:12:46.326Z,99614608.0000
2024-03-26T04:13:47.578Z,99614608.0000
2024-03-26T04:14:48.936Z,99614608.0000
2024-03-26T04:15:50.343Z,99614608.0000
2024-03-26T04:16:51.564Z,99614608.0000
2024-03-26T04:17:52.907Z,99614608.0000
2024-03-26T04:18:54.179Z,99614608.0000
2024-03-26T04:19:55.412Z,99614608.0000
2024-03-26T04:20:56.824Z,99614608.0000
2024-03-26T04:21:58.115Z,99614608.0000
2024-03-26T04:22:59.370Z,99614608.0000
2024-03-26T04:24:00.714Z,99614608.0000
2024-03-26T04:25:01.964Z,99614608.0000
2024-03-26T04:26:03.218Z,99614608.0000
2024-03-26T04:27:04.595Z,99614608.0000
2024-03-26T04:28:06.031Z,99614608.0000
2024-03-26T04:29:07.456Z,99614608.0000
2024-03-26T04:30:08.685Z,99614608.0000
2024-03-26T04:31:10.024Z,99614608.0000
2024-03-26T04:32:11.488Z,99614608.0000
2024-03-26T04:33:12.709Z,99614608.0000
2024-03-26T04:34:14.036Z,99614608.0000
2024-03-26T04:35:15.266Z,99614608.0000
2024-03-26T04:36:16.575Z,99614608.0000
2024-03-26T04:37:18.021Z,99614608.0000
2024-03-26T04:38:19.278Z,99614608.0000
2024-03-26T04:39:20.566Z,99614608.0000
2024-03-26T04:40:22.020Z,99614608.0000
2024-03-26T04:41:23.456Z,99614608.0000
2024-03-26T04:42:24.926Z,99614608.0000
2024-03-26T04:43:26.317Z,99614608.0000
2024-03-26T04:44:27.601Z,99614608.0000
2024-03-26T04:45:28.912Z,99614608.0000
2024-03-26T04:46:30.126Z,99614608.0000
2024-03-26T04:47:31.447Z,99614608.0000
2024-03-26T04:48:32.709Z,99614608.0000
2024-03-26T04:49:33.932Z,99614608.0000
2024-03-26T04:50:35.166Z,99614608.0000
2024-03-26T04:51:36.563Z,99614608.0000
2024-03-26T04:52:37.818Z,99614608.0000
2024-03-26T04:53:39.132Z,99614608.0000
2024-03-26T04:54:40.316Z,99614608.0000
2024-03-26T04:55:41.598Z,99614608.0000
2024-03-26T04:56:43.129Z,99614608.0000
2024-03-26T04:57:44.603Z,99614608.0000
2024-03-26T04:58:45.983Z,99614608.0000
2024-03-26T04:59:47.440Z,99614608.0000
2024-03-26T05:00:48.890Z,99614608.0000
2024-03-26T05:01:50.113Z,99614608.0000
2024-03-26T05:02:51.467Z,99614608.0000
2024-03-26T05:03:52.654Z,99614608.0000
2024-03-26T05:04:54.028Z,99614608.0000
2024-03-26T05:05:55.235Z,99614608.0000
2024-03-26T05:06:56.513Z,99614608.0000
2024-03-26T05:07:57.966Z,99614608.0000
2024-03-26T05:08:59.408Z,99614608.0000
2024-03-26T05:10:00.693Z,99614608.0000
2024-03-26T05:11:01.981Z,99614608.0000
2024-03-26T05:12:03.201Z,99614608.0000
2024-03-26T05:13:04.565Z,99614608.0000
2024-03-26T05:14:05.831Z,99614608.0000
2024-03-26T05:15:07.057Z,99614608.0000
2024-03-26T05:16:08.575Z,99614608.0000
2024-03-26T05:17:09.818Z,99614608.0000
2024-03-26T05:18:11.159Z,99614608.0000
2024-03-26T05:19:12.588Z,99614608.0000
2024-03-26T05:20:13.819Z,99614608.0000
2024-03-26T05:21:15.159Z,99614608.0000
2024-03-26T05:22:16.405Z,99614608.0000
2024-03-26T05:23:17.703Z,99614608.0000
2024-03-26T05:24:19.141Z,99614608.0000
2024-03-26T05:25:20.411Z,99614608.0000
2024-03-26T05:26:21.694Z,99614608.0000
2024-03-26T05:27:22.969Z,99614608.0000
2024-03-26T05:28:24.250Z,99614608.0000
2024-03-26T05:29:25.508Z,99614608.0000
2024-03-26T05:30:27.131Z,99614608.0000
2024-03-26T05:31:28.366Z,99614608.0000
2024-03-26T05:32:29.784Z,99614608.0000
2024-03-26T05:33:31.004Z,99614608.0000
2024-03-26T05:34:32.287Z,99614608.0000
2024-03-26T05:35:33.689Z,99614608.0000
2024-03-26T05:36:34.904Z,99614608.0000
2024-03-26T05:37:36.243Z,99614608.0000
2024-03-26T05:38:37.698Z,99614608.0000
2024-03-26T05:39:38.928Z,99614608.0000
2024-03-26T05:40:40.275Z,99614608.0000
2024-03-26T05:41:41.671Z,99614608.0000
2024-03-26T05:42:42.875Z,99614608.0000
2024-03-26T05:43:42.901Z,99614608.0000
2024-03-26T05:44:44.153Z,99614608.0000
2024-03-26T05:45:45.515Z,99614608.0000
2024-03-26T05:46:47.022Z,99614608.0000
2024-03-26T05:47:48.239Z,99614608.0000
2024-03-26T05:48:49.498Z,99614608.0000
2024-03-26T05:49:50.764Z,99614608.0000
2024-03-26T05:50:52.143Z,99614608.0000
2024-03-26T05:51:53.533Z,99614608.0000
2024-03-26T05:52:54.977Z,99614608.0000
2024-03-26T05:53:56.425Z,99614608.0000
2024-03-26T05:54:57.669Z,99614608.0000
2024-03-26T05:55:58.966Z,99614608.0000
2024-03-26T05:57:00.258Z,99614608.0000
2024-03-26T05:58:01.634Z,99614608.0000
2024-03-26T05:59:02.977Z,99614608.0000
2024-03-26T06:00:04.296Z,99614608.0000
2024-03-26T06:01:05.594Z,99614608.0000
2024-03-26T06:02:06.857Z,99614608.0000
2024-03-26T06:03:08.179Z,99614608.0000
2024-03-26T06:04:09.533Z,99614608.0000
2024-03-26T06:05:10.806Z,99614608.0000
2024-03-26T06:06:12.080Z,99614608.0000
2024-03-26T06:07:13.356Z,99614608.0000
2024-03-26T06:08:14.785Z,99614608.0000
2024-03-26T06:09:16.421Z,99614608.0000
2024-03-26T06:10:17.957Z,99614608.0000
2024-03-26T06:11:19.309Z,99614608.0000
2024-03-26T06:12:20.543Z,99614608.0000
2024-03-26T06:13:22.063Z,99614608.0000
2024-03-26T06:14:23.372Z,99614608.0000
2024-03-26T06:15:24.748Z,99614608.0000
2024-03-26T06:16:26.192Z,99614608.0000
2024-03-26T06:17:27.617Z,99614608.0000
2024-03-26T06:18:29.062Z,99614608.0000
2024-03-26T06:19:30.508Z,99614608.0000
2024-03-26T06:20:31.937Z,99614608.0000
2024-03-26T06:21:33.388Z,99614608.0000
2024-03-26T06:22:34.805Z,99614608.0000
2024-03-26T06:23:36.263Z,99614608.0000
2024-03-26T06:24:37.687Z,99614608.0000
2024-03-26T06:25:39.149Z,99614608.0000
2024-03-26T06:26:40.565Z,99614608.0000
2024-03-26T06:27:42.028Z,99614608.0000
2024-03-26T06:28:43.455Z,99614608.0000
2024-03-26T06:29:44.687Z,99614608.0000
2024-03-26T06:30:46.327Z,99614608.0000
2024-03-26T06:31:47.782Z,99614608.0000
2024-03-26T06:32:49.058Z,99614608.0000
2024-03-26T06:33:50.455Z,99614608.0000
2024-03-26T06:34:51.774Z,99614608.0000
2024-03-26T06:35:53.257Z,99614608.0000
2024-03-26T06:36:54.662Z,99614608.0000
2024-03-26T06:37:55.918Z,99614608.0000
2024-03-26T06:38:57.167Z,99614608.0000
2024-03-26T06:39:58.469Z,99614608.0000
2024-03-26T06:40:59.788Z,99614608.0000
2024-03-26T06:42:01.208Z,99614608.0000
2024-03-26T06:43:02.459Z,99614608.0000
2024-03-26T06:44:03.892Z,99614608.0000
2024-03-26T06:45:05.206Z,99614608.0000
2024-03-26T06:46:06.677Z,99614608.0000
2024-03-26T06:47:08.109Z,99614608.0000
2024-03-26T06:48:09.542Z,99614608.0000
2024-03-26T06:49:10.781Z,99614608.0000
2024-03-26T06:50:12.224Z,99614608.0000
2024-03-26T06:51:13.492Z,99614608.0000
2024-03-26T06:52:14.960Z,99614608.0000
2024-03-26T06:53:16.397Z,99614608.0000
2024-03-26T06:54:17.850Z,99614608.0000
2024-03-26T06:55:19.275Z,99614608.0000
2024-03-26T06:56:20.740Z,99614608.0000
2024-03-26T06:57:22.135Z,99614608.0000
2024-03-26T06:58:23.593Z,99614608.0000
2024-03-26T06:59:24.863Z,99614608.0000
2024-03-26T07:00:26.212Z,99614608.0000
2024-03-26T07:01:27.629Z,99614608.0000
2024-03-26T07:02:28.903Z,99614608.0000
2024-03-26T07:03:30.192Z,99614608.0000
2024-03-26T07:04:31.637Z,99614608.0000
2024-03-26T07:05:33.064Z,99614608.0000
2024-03-26T07:06:34.336Z,99614608.0000
2024-03-26T07:07:37.913Z,99614608.0000
2024-03-26T07:08:37.396Z,99614608.0000
2024-03-26T07:09:38.628Z,99614608.0000
2024-03-26T07:10:39.962Z,99614608.0000
2024-03-26T07:11:41.374Z,99614608.0000
2024-03-26T07:12:42.827Z,99614608.0000
2024-03-26T07:13:44.081Z,99614608.0000
2024-03-26T07:14:45.405Z,99614608.0000
2024-03-26T07:15:46.848Z,99614608.0000
2024-03-26T07:16:48.272Z,99614608.0000
2024-03-26T07:17:49.779Z,99614608.0000
2024-03-26T07:18:52.367Z,99614608.0000
2024-03-26T07:19:51.642Z,99614608.0000
2024-03-26T07:20:52.924Z,99614608.0000
2024-03-26T07:21:54.406Z,99614608.0000
2024-03-26T07:22:55.644Z,99614608.0000
2024-03-26T07:23:57.091Z,99614608.0000
2024-03-26T07:24:58.520Z,99614608.0000
2024-03-26T07:25:59.986Z,99614608.0000
2024-03-26T07:27:01.376Z,99614608.0000
2024-03-26T07:28:02.811Z,99614608.0000
2024-03-26T07:29:04.251Z,99614608.0000
2024-03-26T07:30:05.487Z,99614608.0000
2024-03-26T07:31:06.819Z,99614608.0000
2024-03-26T07:32:08.084Z,99614608.0000
2024-03-26T07:33:09.390Z,99614608.0000
2024-03-26T07:34:10.821Z,99614608.0000
2024-03-26T07:35:12.306Z,99614608.0000
2024-03-26T07:36:13.678Z,99614608.0000
2024-03-26T07:37:15.146Z,99614608.0000
2024-03-26T07:38:16.564Z,99614608.0000
2024-03-26T07:39:17.820Z,99614608.0000
2024-03-26T07:40:19.133Z,99614608.0000
2024-03-26T07:41:20.576Z,99614608.0000
2024-03-26T07:42:22.066Z,99614608.0000
2024-03-26T07:43:24.084Z,99614608.0000
2024-03-26T07:44:23.598Z,99614608.0000
2024-03-26T07:45:25.070Z,99614608.0000
2024-03-26T07:46:26.509Z,99614608.0000
2024-03-26T07:47:28.020Z,99614608.0000
2024-03-26T07:48:29.361Z,99614608.0000
2024-03-26T07:49:30.828Z,99614608.0000
2024-03-26T07:50:32.109Z,99614608.0000
2024-03-26T07:51:33.529Z,99614608.0000
2024-03-26T07:52:34.855Z,99614608.0000
2024-03-26T07:53:36.271Z,99614608.0000
2024-03-26T07:54:37.708Z,99614608.0000
2024-03-26T07:55:39.149Z,99614608.0000
2024-03-26T07:56:40.591Z,99614608.0000
2024-03-26T07:57:42.092Z,99614608.0000
2024-03-26T07:58:43.439Z,99614608.0000
2024-03-26T07:59:44.987Z,99614608.0000
2024-03-26T08:00:46.312Z,99614608.0000
2024-03-26T08:01:47.735Z,99614608.0000
2024-03-26T08:02:49.205Z,99614608.0000
2024-03-26T08:03:50.458Z,99614608.0000
2024-03-26T08:04:51.774Z,99614608.0000
2024-03-26T08:05:53.260Z,99614608.0000
2024-03-26T08:06:54.649Z,99614608.0000
2024-03-26T08:07:55.969Z,99614608.0000
2024-03-26T08:08:57.274Z,99614608.0000
2024-03-26T08:09:58.669Z,99614608.0000
2024-03-26T08:11:00.050Z,99614608.0000
2024-03-26T08:12:01.576Z,99614608.0000
2024-03-26T08:13:02.954Z,99614608.0000
2024-03-26T08:14:04.398Z,99614608.0000
2024-03-26T08:15:05.745Z,99614608.0000
2024-03-26T08:16:07.045Z,99614608.0000
2024-03-26T08:17:08.470Z,99614608.0000
2024-03-26T08:18:09.851Z,99614608.0000
2024-03-26T08:19:11.265Z,99614608.0000
2024-03-26T08:20:12.492Z,99614608.0000
2024-03-26T08:21:13.844Z,99614608.0000
2024-03-26T08:22:15.314Z,99614608.0000
2024-03-26T08:23:16.738Z,99614608.0000
2024-03-26T08:24:17.996Z,99614608.0000
2024-03-26T08:25:19.378Z,99614608.0000
2024-03-26T08:26:20.733Z,99614608.0000
2024-03-26T08:27:22.183Z,99614608.0000
2024-03-26T08:28:23.470Z,99614608.0000
2024-03-26T08:29:24.783Z,99614608.0000
2024-03-26T08:30:26.327Z,99614608.0000
2024-03-26T08:31:27.614Z,99614608.0000
2024-03-26T08:32:28.942Z,99614608.0000
2024-03-26T08:33:30.219Z,99614608.0000
2024-03-26T08:34:31.628Z,99614608.0000
2024-03-26T08:35:33.468Z,99614608.0000
2024-03-26T08:36:34.842Z,99614608.0000
2024-03-26T08:37:36.180Z,99614608.0000
2024-03-26T08:38:37.639Z,99614608.0000
2024-03-26T08:39:39.069Z,99614608.0000
2024-03-26T08:40:40.364Z,99614608.0000
2024-03-26T08:41:41.696Z,99614608.0000
2024-03-26T08:42:43.136Z,99614608.0000
2024-03-26T08:43:44.378Z,99614608.0000
2024-03-26T08:44:45.629Z,99614608.0000
2024-03-26T08:45:46.921Z,99614608.0000
2024-03-26T08:46:48.274Z,99614608.0000
2024-03-26T08:47:49.714Z,99614608.0000
2024-03-26T08:48:51.142Z,99614608.0000
2024-03-26T08:49:52.604Z,99614608.0000
2024-03-26T08:50:54.104Z,99614608.0000
2024-03-26T08:51:55.465Z,99614608.0000
2024-03-26T08:52:56.914Z,99614608.0000
2024-03-26T08:53:58.344Z,99614608.0000
2024-03-26T08:54:59.798Z,99614608.0000
2024-03-26T08:56:08.488Z,99614608.0000
2024-03-26T08:57:02.039Z,99614608.0000
2024-03-26T08:58:03.480Z,99614608.0000
2024-03-26T08:59:04.899Z,99614608.0000
2024-03-26T09:00:06.366Z,99614608.0000
2024-03-26T09:01:07.821Z,99614608.0000
2024-03-26T09:02:09.525Z,99614608.0000
2024-03-26T09:03:10.985Z,99614608.0000
2024-03-26T09:04:12.402Z,99614608.0000
2024-03-26T09:05:13.866Z,99614608.0000
2024-03-26T09:06:15.339Z,99614608.0000
2024-03-26T09:07:16.758Z,99614608.0000
2024-03-26T09:08:18.000Z,99614608.0000
2024-03-26T09:09:19.621Z,99614608.0000
2024-03-26T09:10:21.060Z,99614608.0000
2024-03-26T09:11:22.331Z,99614608.0000
2024-03-26T09:12:23.684Z,99614608.0000
2024-03-26T09:13:25.069Z,99614608.0000
2024-03-26T09:14:26.338Z,99614608.0000
2024-03-26T09:15:27.630Z,99614608.0000
2024-03-26T09:16:29.098Z,99614608.0000
2024-03-26T09:17:30.524Z,99614608.0000
2024-03-26T09:18:31.761Z,99614608.0000
2024-03-26T09:19:33.112Z,99614608.0000
2024-03-26T09:20:34.505Z,99614608.0000
2024-03-26T09:21:35.801Z,99614608.0000
2024-03-26T09:22:37.055Z,99614608.0000
2024-03-26T09:24:50.758Z,18056.3477
2024-03-26T09:25:47.790Z,17189.6660
2024-03-26T09:26:48.404Z,25289.8457
2024-03-26T09:27:49.170Z,26958.7695
2024-03-26T09:28:49.860Z,27881.8457
2024-03-26T09:29:50.442Z,29115.0762
2024-03-26T09:30:51.461Z,30322.4609
2024-03-26T09:31:52.060Z,31639.3848
2024-03-26T09:32:52.790Z,31890.4609
2024-03-26T09:33:53.950Z,33686.1523
2024-03-26T09:34:54.994Z,38336.0000
2024-03-26T09:35:55.602Z,35505.2305
2024-03-26T09:36:56.359Z,32462.7695
2024-03-26T09:37:57.175Z,31816.6152
2024-03-26T09:39:07.208Z,32128.0000
2024-03-26T09:39:59.936Z,41469.3320
2024-03-26T09:41:00.481Z,51401.8477
2024-03-26T09:42:01.097Z,34571.0781
2024-03-26T09:43:01.763Z,29353.8457
2024-03-26T09:44:02.514Z,27239.3848
2024-03-26T09:45:06.091Z,24924.3086
2024-03-26T09:46:03.440Z,24450.6660
2024-03-26T09:47:04.113Z,24411.0762
2024-03-26T09:48:04.800Z,24200.6152
2024-03-26T09:49:05.570Z,24327.3848
2024-03-26T09:50:06.345Z,24988.3086
2024-03-26T09:51:07.148Z,27037.5391
2024-03-26T09:52:07.983Z,29890.4609
2024-03-26T09:53:08.570Z,33398.1523
2024-03-26T09:54:09.320Z,34372.9219
2024-03-26T09:55:10.077Z,33022.7695
2024-03-26T09:56:10.709Z,31588.9238
2024-03-26T09:57:11.407Z,29771.0762
2024-03-26T09:58:12.214Z,30144.0000
2024-03-26T09:59:12.951Z,32883.6914
2024-03-26T10:00:13.737Z,32956.3086
2024-03-26T10:01:14.503Z,30430.7695
2024-03-26T10:02:15.100Z,31403.0762
2024-03-26T10:03:15.897Z,29478.1543
2024-03-26T10:04:16.581Z,29666.4609
2024-03-26T10:05:17.373Z,27678.7695
2024-03-26T10:06:17.979Z,26716.3086
2024-03-26T10:07:18.671Z,26007.3848
2024-03-26T10:08:19.515Z,25608.6152
2024-03-26T10:09:20.277Z,25318.1543
2024-03-26T10:10:20.884Z,25366.1543
2024-03-26T10:11:21.601Z,25986.4609
2024-03-26T10:12:22.336Z,25729.2305
2024-03-26T10:13:22.924Z,26084.9238
2024-03-26T10:14:23.614Z,28337.2305
2024-03-26T10:15:24.411Z,29586.4609
2024-03-26T10:16:25.229Z,30644.9238
2024-03-26T10:17:25.825Z,31319.3848
2024-03-26T10:18:26.908Z,31762.4609
2024-03-26T10:19:27.620Z,30744.6152
2024-03-26T10:20:28.425Z,30518.1543
2024-03-26T10:21:29.041Z,29538.4609
2024-03-26T10:22:29.767Z,29292.3086
2024-03-26T10:23:30.493Z,29156.9238
2024-03-26T10:24:31.256Z,29355.0762
2024-03-26T10:25:31.814Z,29038.7695
2024-03-26T10:26:32.597Z,29240.6152
2024-03-26T10:27:33.386Z,30278.1543
2024-03-26T10:28:33.989Z,30982.1543
2024-03-26T10:29:34.725Z,30246.1543
2024-03-26T10:30:35.457Z,28363.0762
2024-03-26T10:31:36.142Z,27844.9238
2024-03-26T10:32:36.753Z,27513.8457
2024-03-26T10:33:37.511Z,27309.5391